sensor_id;sensor_type;location;lat;lon;timestamp;pressure;altitude;pressure_sealevel;temperature;humidity
76808;BME280;65758;45.458;11.062;2023-04-01T00:01:22;99810.10;;;11.87;64.62
76808;BME280;65758;45.458;11.062;2023-04-01T00:03:49;99812.45;;;11.83;64.30
76808;BME280;65758;45.458;11.062;2023-04-01T00:06:18;99816.19;;;11.78;64.61
76808;BME280;65758;45.458;11.062;2023-04-01T00:08:45;99816.06;;;11.72;64.71
76808;BME280;65758;45.458;11.062;2023-04-01T00:11:14;99821.70;;;11.69;64.60
76808;BME280;65758;45.458;11.062;2023-04-01T00:13:42;99823.76;;;11.66;64.55
76808;BME280;65758;45.458;11.062;2023-04-01T00:16:09;99825.88;;;11.60;64.88
76808;BME280;65758;45.458;11.062;2023-04-01T00:18:47;99825.50;;;11.52;64.76
76808;BME280;65758;45.458;11.062;2023-04-01T00:21:15;99830.88;;;11.44;64.56
76808;BME280;65758;45.458;11.062;2023-04-01T00:23:42;99834.34;;;11.35;64.53
76808;BME280;65758;45.458;11.062;2023-04-01T00:26:10;99838.01;;;11.27;64.95
76808;BME280;65758;45.458;11.062;2023-04-01T00:28:39;99830.52;;;11.20;65.02
76808;BME280;65758;45.458;11.062;2023-04-01T00:31:08;99835.81;;;11.15;64.94
76808;BME280;65758;45.458;11.062;2023-04-01T00:33:35;99830.20;;;11.10;64.99
76808;BME280;65758;45.458;11.062;2023-04-01T00:36:07;99828.14;;;11.03;65.72
76808;BME280;65758;45.458;11.062;2023-04-01T00:38:35;99826.04;;;10.98;66.16
76808;BME280;65758;45.458;11.062;2023-04-01T00:41:03;99830.39;;;10.95;66.04
76808;BME280;65758;45.458;11.062;2023-04-01T00:43:30;99832.77;;;10.94;65.98
76808;BME280;65758;45.458;11.062;2023-04-01T00:45:57;99830.60;;;10.92;65.92
76808;BME280;65758;45.458;11.062;2023-04-01T00:48:34;99828.70;;;10.89;65.80
76808;BME280;65758;45.458;11.062;2023-04-01T00:51:07;99823.95;;;10.86;65.79
76808;BME280;65758;45.458;11.062;2023-04-01T00:53:37;99825.30;;;10.85;65.71
76808;BME280;65758;45.458;11.062;2023-04-01T00:56:09;99828.73;;;10.84;65.78
76808;BME280;65758;45.458;11.062;2023-04-01T00:58:41;99831.54;;;10.82;65.90
76808;BME280;65758;45.458;11.062;2023-04-01T01:01:10;99836.89;;;10.80;65.67
76808;BME280;65758;45.458;11.062;2023-04-01T01:03:37;99841.05;;;10.80;65.26
76808;BME280;65758;45.458;11.062;2023-04-01T01:06:22;99848.09;;;10.75;65.74
76808;BME280;65758;45.458;11.062;2023-04-01T01:12:02;99841.08;;;10.62;66.28
76808;BME280;65758;45.458;11.062;2023-04-01T01:20:14;99837.65;;;10.70;66.05
76808;BME280;65758;45.458;11.062;2023-04-01T01:25:34;99841.63;;;10.65;65.85
76808;BME280;65758;45.458;11.062;2023-04-01T01:31:30;99844.27;;;10.53;65.77
76808;BME280;65758;45.458;11.062;2023-04-01T01:34:28;99840.45;;;10.43;65.80
76808;BME280;65758;45.458;11.062;2023-04-01T01:37:05;99840.45;;;10.31;66.16
76808;BME280;65758;45.458;11.062;2023-04-01T01:39:35;99837.83;;;10.25;65.94
76808;BME280;65758;45.458;11.062;2023-04-01T01:42:06;99836.62;;;10.24;66.25
76808;BME280;65758;45.458;11.062;2023-04-01T01:44:35;99833.20;;;10.29;66.37
76808;BME280;65758;45.458;11.062;2023-04-01T01:47:05;99826.20;;;10.35;66.64
76808;BME280;65758;45.458;11.062;2023-04-01T01:49:33;99828.91;;;10.40;66.53
76808;BME280;65758;45.458;11.062;2023-04-01T01:52:02;99831.09;;;10.42;66.00
76808;BME280;65758;45.458;11.062;2023-04-01T01:54:30;99826.77;;;10.42;66.07
76808;BME280;65758;45.458;11.062;2023-04-01T01:57:06;99830.80;;;10.42;65.92
76808;BME280;65758;45.458;11.062;2023-04-01T01:59:37;99822.66;;;10.39;65.96
76808;BME280;65758;45.458;11.062;2023-04-01T02:02:06;99814.92;;;10.37;66.02
76808;BME280;65758;45.458;11.062;2023-04-01T02:04:37;99810.11;;;10.38;65.90
76808;BME280;65758;45.458;11.062;2023-04-01T02:07:10;99808.63;;;10.37;65.74
76808;BME280;65758;45.458;11.062;2023-04-01T02:09:39;99811.94;;;10.36;65.83
76808;BME280;65758;45.458;11.062;2023-04-01T02:12:07;99810.36;;;10.33;65.69
76808;BME280;65758;45.458;11.062;2023-04-01T02:14:52;99814.95;;;10.30;65.88
76808;BME280;65758;45.458;11.062;2023-04-01T02:17:22;99825.09;;;10.30;65.88
76808;BME280;65758;45.458;11.062;2023-04-01T02:19:57;99821.59;;;10.30;65.78
76808;BME280;65758;45.458;11.062;2023-04-01T02:22:28;99828.22;;;10.29;65.99
76808;BME280;65758;45.458;11.062;2023-04-01T02:25:05;99829.62;;;10.24;66.02
76808;BME280;65758;45.458;11.062;2023-04-01T02:27:33;99823.59;;;10.12;66.03
76808;BME280;65758;45.458;11.062;2023-04-01T02:30:00;99817.66;;;10.02;66.25
76808;BME280;65758;45.458;11.062;2023-04-01T02:32:27;99813.98;;;10.01;66.26
76808;BME280;65758;45.458;11.062;2023-04-01T02:34:56;99822.25;;;10.00;66.26
76808;BME280;65758;45.458;11.062;2023-04-01T02:37:23;99829.05;;;9.97;66.15
76808;BME280;65758;45.458;11.062;2023-04-01T02:39:49;99828.69;;;9.95;66.17
76808;BME280;65758;45.458;11.062;2023-04-01T02:42:16;99825.58;;;9.93;66.04
76808;BME280;65758;45.458;11.062;2023-04-01T02:44:43;99823.85;;;9.88;66.17
76808;BME280;65758;45.458;11.062;2023-04-01T02:47:10;99823.54;;;9.83;66.36
76808;BME280;65758;45.458;11.062;2023-04-01T02:49:36;99815.83;;;9.86;66.28
76808;BME280;65758;45.458;11.062;2023-04-01T02:52:03;99818.53;;;9.90;66.40
76808;BME280;65758;45.458;11.062;2023-04-01T02:54:30;99817.38;;;9.92;66.33
76808;BME280;65758;45.458;11.062;2023-04-01T02:56:57;99815.30;;;9.93;66.17
76808;BME280;65758;45.458;11.062;2023-04-01T02:59:23;99815.61;;;9.92;65.98
76808;BME280;65758;45.458;11.062;2023-04-01T03:01:50;99822.23;;;9.90;65.73
76808;BME280;65758;45.458;11.062;2023-04-01T03:04:17;99827.11;;;9.87;65.82
76808;BME280;65758;45.458;11.062;2023-04-01T03:06:44;99831.58;;;9.81;65.95
76808;BME280;65758;45.458;11.062;2023-04-01T03:09:10;99836.98;;;9.73;66.25
76808;BME280;65758;45.458;11.062;2023-04-01T03:11:37;99835.60;;;9.69;66.48
76808;BME280;65758;45.458;11.062;2023-04-01T03:14:04;99830.23;;;9.59;66.49
76808;BME280;65758;45.458;11.062;2023-04-01T03:16:31;99826.49;;;9.48;66.71
76808;BME280;65758;45.458;11.062;2023-04-01T03:18:58;99822.94;;;9.42;67.31
76808;BME280;65758;45.458;11.062;2023-04-01T03:21:26;99826.23;;;9.46;67.29
76808;BME280;65758;45.458;11.062;2023-04-01T03:23:53;99826.11;;;9.53;67.35
76808;BME280;65758;45.458;11.062;2023-04-01T03:26:20;99828.41;;;9.58;67.16
76808;BME280;65758;45.458;11.062;2023-04-01T03:28:48;99823.10;;;9.61;67.04
76808;BME280;65758;45.458;11.062;2023-04-01T03:31:15;99824.97;;;9.64;66.70
76808;BME280;65758;45.458;11.062;2023-04-01T03:33:46;99830.24;;;9.66;66.62
76808;BME280;65758;45.458;11.062;2023-04-01T03:36:13;99831.30;;;9.66;66.83
76808;BME280;65758;45.458;11.062;2023-04-01T03:38:41;99829.44;;;9.66;66.75
76808;BME280;65758;45.458;11.062;2023-04-01T03:41:15;99833.48;;;9.66;66.72
76808;BME280;65758;45.458;11.062;2023-04-01T03:43:43;99834.67;;;9.64;66.70
76808;BME280;65758;45.458;11.062;2023-04-01T03:46:11;99838.75;;;9.60;66.56
76808;BME280;65758;45.458;11.062;2023-04-01T03:48:38;99836.05;;;9.58;66.56
76808;BME280;65758;45.458;11.062;2023-04-01T03:51:07;99839.35;;;9.59;66.34
76808;BME280;65758;45.458;11.062;2023-04-01T03:53:35;99835.29;;;9.58;66.49
76808;BME280;65758;45.458;11.062;2023-04-01T03:56:07;99839.25;;;9.56;66.57
76808;BME280;65758;45.458;11.062;2023-04-01T03:58:34;99834.00;;;9.56;66.41
76808;BME280;65758;45.458;11.062;2023-04-01T04:01:02;99846.71;;;9.59;66.56
76808;BME280;65758;45.458;11.062;2023-04-01T04:03:29;99847.57;;;9.60;66.78
76808;BME280;65758;45.458;11.062;2023-04-01T04:05:57;99842.63;;;9.62;66.68
76808;BME280;65758;45.458;11.062;2023-04-01T04:08:23;99838.39;;;9.63;66.56
76808;BME280;65758;45.458;11.062;2023-04-01T04:10:56;99844.02;;;9.66;66.47
76808;BME280;65758;45.458;11.062;2023-04-01T04:13:23;99854.08;;;9.69;66.21
76808;BME280;65758;45.458;11.062;2023-04-01T04:15:56;99860.13;;;9.69;66.10
76808;BME280;65758;45.458;11.062;2023-04-01T04:18:22;99859.35;;;9.68;66.14
76808;BME280;65758;45.458;11.062;2023-04-01T04:20:49;99858.66;;;9.67;66.10
76808;BME280;65758;45.458;11.062;2023-04-01T04:23:18;99865.40;;;9.64;66.11
76808;BME280;65758;45.458;11.062;2023-04-01T04:26:03;99869.06;;;9.57;66.09
76808;BME280;65758;45.458;11.062;2023-04-01T04:28:30;99869.37;;;9.50;66.20
76808;BME280;65758;45.458;11.062;2023-04-01T04:30:58;99866.31;;;9.43;66.08
76808;BME280;65758;45.458;11.062;2023-04-01T04:33:27;99873.70;;;9.36;66.31
76808;BME280;65758;45.458;11.062;2023-04-01T04:35:57;99876.84;;;9.34;66.54
76808;BME280;65758;45.458;11.062;2023-04-01T04:38:26;99879.73;;;9.34;66.77
76808;BME280;65758;45.458;11.062;2023-04-01T04:40:53;99882.46;;;9.35;66.79
76808;BME280;65758;45.458;11.062;2023-04-01T04:43:20;99881.89;;;9.33;66.60
76808;BME280;65758;45.458;11.062;2023-04-01T04:45:47;99880.89;;;9.33;66.63
76808;BME280;65758;45.458;11.062;2023-04-01T04:48:15;99884.92;;;9.33;66.35
76808;BME280;65758;45.458;11.062;2023-04-01T04:50:47;99883.08;;;9.31;66.15
76808;BME280;65758;45.458;11.062;2023-04-01T04:53:17;99878.91;;;9.25;66.45
76808;BME280;65758;45.458;11.062;2023-04-01T04:55:46;99877.70;;;9.18;66.59
76808;BME280;65758;45.458;11.062;2023-04-01T04:58:23;99885.35;;;9.08;66.71
76808;BME280;65758;45.458;11.062;2023-04-01T05:00:50;99885.32;;;9.01;66.71
76808;BME280;65758;45.458;11.062;2023-04-01T05:03:21;99885.70;;;8.99;66.81
76808;BME280;65758;45.458;11.062;2023-04-01T05:05:51;99884.42;;;9.01;67.08
76808;BME280;65758;45.458;11.062;2023-04-01T05:08:18;99887.29;;;9.06;66.92
76808;BME280;65758;45.458;11.062;2023-04-01T05:10:46;99893.73;;;9.08;67.09
76808;BME280;65758;45.458;11.062;2023-04-01T05:13:12;99893.95;;;9.07;67.02
76808;BME280;65758;45.458;11.062;2023-04-01T05:15:40;99893.33;;;9.06;67.03
76808;BME280;65758;45.458;11.062;2023-04-01T05:18:06;99897.58;;;9.05;66.93
76808;BME280;65758;45.458;11.062;2023-04-01T05:20:33;99899.05;;;9.03;67.10
76808;BME280;65758;45.458;11.062;2023-04-01T05:23:01;99901.26;;;8.99;67.22
76808;BME280;65758;45.458;11.062;2023-04-01T05:25:28;99906.40;;;8.98;67.20
76808;BME280;65758;45.458;11.062;2023-04-01T05:27:55;99909.20;;;8.96;67.23
76808;BME280;65758;45.458;11.062;2023-04-01T05:30:22;99908.12;;;8.96;66.84
76808;BME280;65758;45.458;11.062;2023-04-01T05:33:28;99903.04;;;9.01;66.83
76808;BME280;65758;45.458;11.062;2023-04-01T05:35:55;99898.15;;;9.06;67.02
76808;BME280;65758;45.458;11.062;2023-04-01T05:38:22;99897.92;;;9.09;67.12
76808;BME280;65758;45.458;11.062;2023-04-01T05:40:49;99895.54;;;9.14;67.15
76808;BME280;65758;45.458;11.062;2023-04-01T05:43:16;99896.59;;;9.32;67.12
76808;BME280;65758;45.458;11.062;2023-04-01T05:45:44;99891.99;;;9.56;66.59
76808;BME280;65758;45.458;11.062;2023-04-01T05:48:11;99890.55;;;9.79;66.13
76808;BME280;65758;45.458;11.062;2023-04-01T05:50:40;99889.48;;;9.97;65.48
76808;BME280;65758;45.458;11.062;2023-04-01T05:53:08;99893.84;;;10.03;65.17
76808;BME280;65758;45.458;11.062;2023-04-01T05:55:35;99895.71;;;10.10;65.15
76808;BME280;65758;45.458;11.062;2023-04-01T05:58:03;99898.27;;;10.19;64.94
76808;BME280;65758;45.458;11.062;2023-04-01T06:00:30;99901.97;;;10.30;64.89
76808;BME280;65758;45.458;11.062;2023-04-01T06:03:00;99902.19;;;10.42;64.81
76808;BME280;65758;45.458;11.062;2023-04-01T06:05:29;99904.58;;;10.53;64.60
76808;BME280;65758;45.458;11.062;2023-04-01T06:08:16;99911.27;;;10.67;64.50
76808;BME280;65758;45.458;11.062;2023-04-01T06:14:11;99914.80;;;11.09;63.96
76808;BME280;65758;45.458;11.062;2023-04-01T06:19:53;99914.30;;;11.26;63.14
76808;BME280;65758;45.458;11.062;2023-04-01T06:22:39;99917.06;;;11.36;63.21
76808;BME280;65758;45.458;11.062;2023-04-01T06:31:32;99919.95;;;11.77;62.88
76808;BME280;65758;45.458;11.062;2023-04-01T06:34:33;99924.29;;;11.90;62.87
76808;BME280;65758;45.458;11.062;2023-04-01T06:37:15;99923.10;;;12.05;62.87
76808;BME280;65758;45.458;11.062;2023-04-01T06:40:18;99924.27;;;12.21;62.86
76808;BME280;65758;45.458;11.062;2023-04-01T06:43:24;99924.11;;;12.42;62.72
76808;BME280;65758;45.458;11.062;2023-04-01T06:46:33;99928.20;;;12.67;62.60
76808;BME280;65758;45.458;11.062;2023-04-01T06:52:41;99937.63;;;13.04;62.19
76808;BME280;65758;45.458;11.062;2023-04-01T06:55:43;99941.58;;;13.20;61.95
76808;BME280;65758;45.458;11.062;2023-04-01T06:58:24;99939.64;;;13.33;61.94
76808;BME280;65758;45.458;11.062;2023-04-01T07:00:57;99940.50;;;13.49;61.96
76808;BME280;65758;45.458;11.062;2023-04-01T07:03:33;99943.70;;;13.68;62.48
76808;BME280;65758;45.458;11.062;2023-04-01T07:06:06;99946.17;;;13.88;62.25
76808;BME280;65758;45.458;11.062;2023-04-01T07:08:41;99951.28;;;13.98;60.78
76808;BME280;65758;45.458;11.062;2023-04-01T07:11:11;99949.20;;;14.03;60.45
76808;BME280;65758;45.458;11.062;2023-04-01T07:16:51;99951.56;;;14.13;59.73
76808;BME280;65758;45.458;11.062;2023-04-01T07:19:39;99951.63;;;14.15;59.76
76808;BME280;65758;45.458;11.062;2023-04-01T07:22:34;99951.75;;;14.22;59.91
76808;BME280;65758;45.458;11.062;2023-04-01T07:25:15;99952.67;;;14.31;59.66
76808;BME280;65758;45.458;11.062;2023-04-01T07:27:47;99953.05;;;14.41;59.81
76808;BME280;65758;45.458;11.062;2023-04-01T07:30:16;99957.21;;;14.50;60.21
76808;BME280;65758;45.458;11.062;2023-04-01T07:32:59;99962.45;;;14.57;60.27
76808;BME280;65758;45.458;11.062;2023-04-01T07:38:22;99960.16;;;14.61;60.39
76808;BME280;65758;45.458;11.062;2023-04-01T07:43:56;99960.07;;;14.72;59.99
76808;BME280;65758;45.458;11.062;2023-04-01T07:51:56;99969.63;;;15.01;60.31
76808;BME280;65758;45.458;11.062;2023-04-01T07:54:50;99969.96;;;15.09;60.25
76808;BME280;65758;45.458;11.062;2023-04-01T07:57:27;99962.52;;;15.19;59.99
76808;BME280;65758;45.458;11.062;2023-04-01T08:00:04;99966.65;;;15.30;59.90
76808;BME280;65758;45.458;11.062;2023-04-01T08:05:33;99965.91;;;15.46;59.80
76808;BME280;65758;45.458;11.062;2023-04-01T08:17:57;99962.96;;;15.73;59.84
76808;BME280;65758;45.458;11.062;2023-04-01T08:23:21;99964.09;;;15.92;59.54
76808;BME280;65758;45.458;11.062;2023-04-01T08:25:54;99970.64;;;15.97;59.51
76808;BME280;65758;45.458;11.062;2023-04-01T08:28:32;99968.52;;;16.03;59.51
76808;BME280;65758;45.458;11.062;2023-04-01T08:33:54;99965.93;;;16.14;59.16
76808;BME280;65758;45.458;11.062;2023-04-01T08:36:27;99964.53;;;16.19;59.30
76808;BME280;65758;45.458;11.062;2023-04-01T08:39:12;99960.46;;;16.28;59.25
76808;BME280;65758;45.458;11.062;2023-04-01T08:56:53;99969.84;;;16.84;58.19
76808;BME280;65758;45.458;11.062;2023-04-01T09:15:12;99968.13;;;17.38;56.23
76808;BME280;65758;45.458;11.062;2023-04-01T09:23:29;99973.41;;;17.53;55.94
76808;BME280;65758;45.458;11.062;2023-04-01T09:32:28;99979.90;;;17.71;54.47
76808;BME280;65758;45.458;11.062;2023-04-01T09:51:51;99963.83;;;18.39;54.00
76808;BME280;65758;45.458;11.062;2023-04-01T09:59:49;99964.55;;;18.84;51.43
76808;BME280;65758;45.458;11.062;2023-04-01T10:05:41;99966.34;;;18.93;49.72
76808;BME280;65758;45.458;11.062;2023-04-01T10:37:42;99933.63;;;19.90;47.58
76808;BME280;65758;45.458;11.062;2023-04-01T10:40:34;99931.72;;;20.02;47.17
76808;BME280;65758;45.458;11.062;2023-04-01T10:43:59;99934.20;;;20.14;47.60
76808;BME280;65758;45.458;11.062;2023-04-01T11:02:12;99929.58;;;20.78;45.37
76808;BME280;65758;45.458;11.062;2023-04-01T11:08:28;99928.27;;;20.74;44.42
76808;BME280;65758;45.458;11.062;2023-04-01T11:11:09;99924.65;;;20.79;44.37
76808;BME280;65758;45.458;11.062;2023-04-01T11:22:42;99905.13;;;20.97;43.81
76808;BME280;65758;45.458;11.062;2023-04-01T11:25:36;99915.85;;;20.97;43.46
76808;BME280;65758;45.458;11.062;2023-04-01T11:37:21;99909.56;;;20.71;42.42
76808;BME280;65758;45.458;11.062;2023-04-01T11:44:20;99904.30;;;20.76;42.02
76808;BME280;65758;45.458;11.062;2023-04-01T12:26:10;99890.99;;;21.33;39.33
76808;BME280;65758;45.458;11.062;2023-04-01T12:32:20;99883.95;;;21.35;38.62
76808;BME280;65758;45.458;11.062;2023-04-01T12:37:45;99879.13;;;21.50;37.38
76808;BME280;65758;45.458;11.062;2023-04-01T12:48:48;99876.47;;;21.73;35.68
76808;BME280;65758;45.458;11.062;2023-04-01T12:54:09;99877.30;;;21.51;35.43
76808;BME280;65758;45.458;11.062;2023-04-01T12:56:48;99877.29;;;21.56;36.13
76808;BME280;65758;45.458;11.062;2023-04-01T13:08:09;99862.11;;;21.81;35.10
76808;BME280;65758;45.458;11.062;2023-04-01T13:13:41;99866.38;;;21.79;34.00
76808;BME280;65758;45.458;11.062;2023-04-01T13:16:19;99865.66;;;21.71;33.67
76808;BME280;65758;45.458;11.062;2023-04-01T13:29:24;99842.92;;;21.11;31.10
76808;BME280;65758;45.458;11.062;2023-04-01T13:41:04;99823.48;;;20.86;29.80
76808;BME280;65758;45.458;11.062;2023-04-01T13:43:42;99820.29;;;20.90;30.65
76808;BME280;65758;45.458;11.062;2023-04-01T14:05:39;99790.41;;;20.95;30.70
76808;BME280;65758;45.458;11.062;2023-04-01T14:08:33;99790.06;;;20.91;31.14
76808;BME280;65758;45.458;11.062;2023-04-01T14:14:07;99784.98;;;20.93;30.96
76808;BME280;65758;45.458;11.062;2023-04-01T14:17:02;99785.55;;;20.98;31.66
76808;BME280;65758;45.458;11.062;2023-04-01T14:20:10;99783.58;;;21.03;31.74
76808;BME280;65758;45.458;11.062;2023-04-01T14:28:39;99776.23;;;20.99;31.68
76808;BME280;65758;45.458;11.062;2023-04-01T14:31:23;99772.51;;;20.95;31.63
76808;BME280;65758;45.458;11.062;2023-04-01T14:48:25;99764.01;;;20.29;33.45
76808;BME280;65758;45.458;11.062;2023-04-01T14:50:55;99760.39;;;20.17;32.73
76808;BME280;65758;45.458;11.062;2023-04-01T14:53:31;99755.14;;;20.08;33.24
76808;BME280;65758;45.458;11.062;2023-04-01T14:56:02;99753.06;;;20.00;33.32
76808;BME280;65758;45.458;11.062;2023-04-01T14:58:50;99752.23;;;19.92;33.73
76808;BME280;65758;45.458;11.062;2023-04-01T15:01:55;99756.80;;;19.85;33.74
76808;BME280;65758;45.458;11.062;2023-04-01T15:13:23;99749.59;;;19.82;32.76
76808;BME280;65758;45.458;11.062;2023-04-01T15:22:00;99741.55;;;20.08;32.72
76808;BME280;65758;45.458;11.062;2023-04-01T15:25:05;99741.63;;;20.16;32.57
76808;BME280;65758;45.458;11.062;2023-04-01T15:28:05;99737.85;;;20.23;32.06
76808;BME280;65758;45.458;11.062;2023-04-01T15:30:33;99735.13;;;20.21;32.15
76808;BME280;65758;45.458;11.062;2023-04-01T15:36:02;99733.09;;;20.08;32.14
76808;BME280;65758;45.458;11.062;2023-04-01T15:41:16;99729.61;;;19.95;32.24
76808;BME280;65758;45.458;11.062;2023-04-01T15:43:50;99730.26;;;19.92;32.61
76808;BME280;65758;45.458;11.062;2023-04-01T15:46:48;99727.88;;;19.87;32.75
76808;BME280;65758;45.458;11.062;2023-04-01T15:49:20;99729.44;;;19.79;33.16
76808;BME280;65758;45.458;11.062;2023-04-01T16:00:29;99733.91;;;19.59;32.68
76808;BME280;65758;45.458;11.062;2023-04-01T16:11:21;99738.71;;;19.49;33.13
76808;BME280;65758;45.458;11.062;2023-04-01T16:16:50;99736.60;;;19.51;32.80
76808;BME280;65758;45.458;11.062;2023-04-01T16:30:01;99721.42;;;19.45;32.81
76808;BME280;65758;45.458;11.062;2023-04-01T16:32:37;99723.25;;;19.45;32.74
76808;BME280;65758;45.458;11.062;2023-04-01T16:37:53;99724.41;;;19.43;32.89
76808;BME280;65758;45.458;11.062;2023-04-01T16:40:42;99719.71;;;19.42;32.42
76808;BME280;65758;45.458;11.062;2023-04-01T16:46:38;99710.02;;;19.32;31.17
76808;BME280;65758;45.458;11.062;2023-04-01T16:51:52;99716.30;;;19.27;32.21
76808;BME280;65758;45.458;11.062;2023-04-01T16:54:30;99720.98;;;19.23;31.95
76808;BME280;65758;45.458;11.062;2023-04-01T17:02:47;99721.35;;;19.04;32.76
76808;BME280;65758;45.458;11.062;2023-04-01T17:05:16;99723.35;;;18.95;33.30
76808;BME280;65758;45.458;11.062;2023-04-01T17:07:55;99720.06;;;18.88;33.83
76808;BME280;65758;45.458;11.062;2023-04-01T17:11:07;99717.42;;;18.81;34.42
76808;BME280;65758;45.458;11.062;2023-04-01T17:13:38;99716.11;;;18.74;34.73
76808;BME280;65758;45.458;11.062;2023-04-01T17:29:59;99728.55;;;18.27;34.90
76808;BME280;65758;45.458;11.062;2023-04-01T17:32:55;99729.06;;;18.19;34.93
76808;BME280;65758;45.458;11.062;2023-04-01T17:35:39;99733.30;;;18.11;34.75
76808;BME280;65758;45.458;11.062;2023-04-01T17:38:47;99737.25;;;18.03;35.14
76808;BME280;65758;45.458;11.062;2023-04-01T17:55:20;99750.80;;;17.45;37.38
76808;BME280;65758;45.458;11.062;2023-04-01T17:57:46;99753.45;;;17.34;37.90
76808;BME280;65758;45.458;11.062;2023-04-01T18:19:59;99782.55;;;16.59;39.65
76808;BME280;65758;45.458;11.062;2023-04-01T18:22:48;99787.34;;;16.50;41.72
76808;BME280;65758;45.458;11.062;2023-04-01T18:25:35;99790.15;;;16.44;40.16
76808;BME280;65758;45.458;11.062;2023-04-01T18:36:43;99809.79;;;16.18;40.36
76808;BME280;65758;45.458;11.062;2023-04-01T18:39:21;99808.83;;;16.12;40.10
76808;BME280;65758;45.458;11.062;2023-04-01T18:44:48;99818.99;;;16.03;40.49
76808;BME280;65758;45.458;11.062;2023-04-01T18:53:12;99828.23;;;15.89;41.00
76808;BME280;65758;45.458;11.062;2023-04-01T18:55:52;99828.09;;;15.85;41.15
76808;BME280;65758;45.458;11.062;2023-04-01T18:58:28;99830.96;;;15.82;41.28
76808;BME280;65758;45.458;11.062;2023-04-01T19:01:22;99837.83;;;15.79;41.33
76808;BME280;65758;45.458;11.062;2023-04-01T19:06:48;99844.11;;;15.69;41.54
76808;BME280;65758;45.458;11.062;2023-04-01T19:09:31;99844.00;;;15.65;41.70
76808;BME280;65758;45.458;11.062;2023-04-01T19:20:42;99851.29;;;15.52;41.93
76808;BME280;65758;45.458;11.062;2023-04-01T19:26:05;99857.61;;;15.47;42.18
76808;BME280;65758;45.458;11.062;2023-04-01T19:37:01;99866.24;;;15.35;41.37
76808;BME280;65758;45.458;11.062;2023-04-01T19:39:41;99868.08;;;15.33;41.35
76808;BME280;65758;45.458;11.062;2023-04-01T19:42:37;99867.42;;;15.32;41.45
76808;BME280;65758;45.458;11.062;2023-04-01T19:56:19;99882.73;;;15.40;42.14
76808;BME280;65758;45.458;11.062;2023-04-01T19:58:50;99886.08;;;15.42;42.16
76808;BME280;65758;45.458;11.062;2023-04-01T20:01:32;99888.98;;;15.42;42.35
76808;BME280;65758;45.458;11.062;2023-04-01T20:04:20;99895.11;;;15.42;42.15
76808;BME280;65758;45.458;11.062;2023-04-01T20:17:53;99902.91;;;15.33;43.17
76808;BME280;65758;45.458;11.062;2023-04-01T20:20:25;99903.30;;;15.28;42.95
76808;BME280;65758;45.458;11.062;2023-04-01T20:23:25;99904.30;;;15.27;43.04
76808;BME280;65758;45.458;11.062;2023-04-01T20:26:08;99905.95;;;15.25;43.97
76808;BME280;65758;45.458;11.062;2023-04-01T20:28:44;99910.77;;;15.22;43.55
76808;BME280;65758;45.458;11.062;2023-04-01T20:31:23;99908.39;;;15.18;43.48
76808;BME280;65758;45.458;11.062;2023-04-01T20:34:15;99911.26;;;15.13;43.61
76808;BME280;65758;45.458;11.062;2023-04-01T20:37:07;99910.66;;;15.07;44.03
76808;BME280;65758;45.458;11.062;2023-04-01T20:46:06;99906.54;;;14.81;44.57
76808;BME280;65758;45.458;11.062;2023-04-01T20:48:40;99914.85;;;14.72;45.32
76808;BME280;65758;45.458;11.062;2023-04-01T20:51:16;99913.09;;;14.71;47.90
76808;BME280;65758;45.458;11.062;2023-04-01T20:54:18;99912.75;;;14.75;49.68
76808;BME280;65758;45.458;11.062;2023-04-01T20:57:00;99910.95;;;14.86;51.44
76808;BME280;65758;45.458;11.062;2023-04-01T21:05:22;99922.84;;;15.12;52.93
76808;BME280;65758;45.458;11.062;2023-04-01T21:08:19;99930.39;;;15.16;52.99
76808;BME280;65758;45.458;11.062;2023-04-01T21:30:25;99952.12;;;15.21;56.43
76808;BME280;65758;45.458;11.062;2023-04-01T21:35:57;99951.44;;;15.19;57.75
76808;BME280;65758;45.458;11.062;2023-04-01T21:44:36;99952.98;;;15.19;58.35
76808;BME280;65758;45.458;11.062;2023-04-01T21:50:14;99948.19;;;15.17;58.23
76808;BME280;65758;45.458;11.062;2023-04-01T21:56:03;99946.59;;;15.18;58.66
76808;BME280;65758;45.458;11.062;2023-04-01T22:02:03;99950.78;;;15.18;58.45
76808;BME280;65758;45.458;11.062;2023-04-01T22:07:12;99948.67;;;15.18;58.43
76808;BME280;65758;45.458;11.062;2023-04-01T22:10:16;99948.19;;;15.19;58.41
76808;BME280;65758;45.458;11.062;2023-04-01T22:13:13;99947.75;;;15.20;58.51
76808;BME280;65758;45.458;11.062;2023-04-01T22:21:43;99949.13;;;15.19;58.90
76808;BME280;65758;45.458;11.062;2023-04-01T22:27:28;99947.36;;;15.20;58.79
76808;BME280;65758;45.458;11.062;2023-04-01T22:30:32;99945.77;;;15.19;58.95
76808;BME280;65758;45.458;11.062;2023-04-01T22:33:14;99947.69;;;15.19;59.10
76808;BME280;65758;45.458;11.062;2023-04-01T22:43:47;99940.54;;;15.21;58.71
76808;BME280;65758;45.458;11.062;2023-04-01T22:46:39;99941.08;;;15.22;58.37
76808;BME280;65758;45.458;11.062;2023-04-01T22:49:27;99938.66;;;15.24;57.76
76808;BME280;65758;45.458;11.062;2023-04-01T22:54:45;99934.02;;;15.26;56.80
76808;BME280;65758;45.458;11.062;2023-04-01T22:57:40;99937.81;;;15.27;56.21
76808;BME280;65758;45.458;11.062;2023-04-01T23:00:16;99938.93;;;15.27;55.75
76808;BME280;65758;45.458;11.062;2023-04-01T23:05:41;99932.14;;;15.30;54.86
76808;BME280;65758;45.458;11.062;2023-04-01T23:11:02;99934.39;;;15.29;54.83
76808;BME280;65758;45.458;11.062;2023-04-01T23:13:44;99933.02;;;15.28;54.87
76808;BME280;65758;45.458;11.062;2023-04-01T23:16:15;99938.70;;;15.26;54.97
76808;BME280;65758;45.458;11.062;2023-04-01T23:18:55;99933.80;;;15.25;54.90
76808;BME280;65758;45.458;11.062;2023-04-01T23:21:26;99934.09;;;15.24;54.94
76808;BME280;65758;45.458;11.062;2023-04-01T23:24:13;99937.39;;;15.24;55.05